Time;durP1;ratioP1;P1;durP2;ratioP2;P2;SDS_P1;SDS_P2;PMS_P1;PMS_P2;Temp;Humidity;BMP_temperature;BMP_pressure;BME280_temperature;BME280_humidity;BME280_pressure;Samples;Min_cycle;Max_cycle;Signal;HPM_P1;HPM_P2
2021/01/30 00:00:07;;;;;;;45.17;28.73;;;;;;;-0.44;81.35;99162.97;4945856;28;20027;-87
2021/01/30 00:02:33;;;;;;;38.07;27.77;;;;;;;-0.61;81.67;99088.44;4952228;28;20090;-88
2021/01/30 00:04:59;;;;;;;55.40;28.70;;;;;;;0.12;81.71;99231.34;4957213;28;20450;-86
2021/01/30 00:07:25;;;;;;;42.30;24.50;;;;;;;0.02;81.12;99168.19;4972294;28;20051;-87
2021/01/30 00:09:51;;;;;;;37.40;20.87;;;;;;;-0.03;81.37;99128.97;4971223;28;20050;-87
2021/01/30 00:12:17;;;;;;;36.63;20.10;;;;;;;-0.21;80.83;99083.16;4970870;28;20046;-87
2021/01/30 00:14:43;;;;;;;39.23;20.10;;;;;;;0.30;80.76;99157.94;4954852;28;20041;-75
2021/01/30 00:17:09;;;;;;;30.47;17.53;;;;;;;1.04;80.97;99255.16;4958135;28;20047;-72
2021/01/30 00:19:35;;;;;;;39.40;23.27;;;;;;;1.04;80.80;99224.66;4953715;28;20554;-71
2021/01/30 00:22:13;;;;;;;40.40;23.20;;;;;;;1.20;80.58;99236.53;4958235;28;20046;-71
2021/01/30 00:24:42;;;;;;;29.03;17.37;;;;;;;1.11;80.13;99228.41;4955419;28;20111;-72
2021/01/30 00:27:13;;;;;;;26.50;15.60;;;;;;;1.22;79.46;99237.50;4954301;28;20046;-70
2021/01/30 00:29:39;;;;;;;31.43;16.87;;;;;;;1.12;78.72;99214.88;4952853;28;20502;-70
2021/01/30 00:32:06;;;;;;;27.20;17.23;;;;;;;1.12;79.35;99225.94;4959488;28;20042;-70
2021/01/30 00:34:33;;;;;;;31.40;17.73;;;;;;;1.12;79.27;99225.94;4952958;28;20061;-70
2021/01/30 00:37:08;;;;;;;26.80;17.40;;;;;;;0.78;79.62;99169.88;4953813;28;20045;-71
2021/01/30 00:39:34;;;;;;;25.60;16.93;;;;;;;1.04;79.65;99226.31;4915983;29;20111;-74
2021/01/30 00:41:59;;;;;;;27.20;16.43;;;;;;;0.93;79.84;99215.56;4916333;29;20032;-75
2021/01/30 00:44:25;;;;;;;30.97;20.53;;;;;;;0.44;79.99;99138.41;4918345;28;20051;-75
2021/01/30 00:46:51;;;;;;;29.10;17.47;;;;;;;1.00;80.39;99222.75;4916589;29;20055;-75
2021/01/30 00:49:17;;;;;;;27.17;17.73;;;;;;;0.89;80.76;99214.50;4917504;29;20058;-76
2021/01/30 00:51:43;;;;;;;26.87;17.83;;;;;;;0.78;80.91;99208.84;4915709;29;20072;-76
2021/01/30 00:54:10;;;;;;;32.27;18.60;;;;;;;0.80;81.35;99206.41;4930488;28;20035;-76
2021/01/30 00:56:35;;;;;;;31.23;18.63;;;;;;;0.65;81.87;99196.25;4929623;28;20500;-74
2021/01/30 00:59:01;;;;;;;64.80;29.97;;;;;;;0.74;81.99;99199.31;4917040;29;20059;-73
2021/01/30 01:01:27;;;;;;;24.90;17.40;;;;;;;0.59;81.89;99173.94;4931657;28;20098;-79
2021/01/30 01:03:52;;;;;;;26.20;17.23;;;;;;;0.41;81.84;99123.00;4932879;28;20023;-79
2021/01/30 01:06:17;;;;;;;25.80;16.27;;;;;;;0.71;82.34;99168.66;4935590;29;20075;-75
2021/01/30 01:08:43;;;;;;;24.50;17.43;;;;;;;0.68;82.72;99145.63;4933851;28;20035;-75
2021/01/30 01:11:10;;;;;;;25.20;16.10;;;;;;;0.61;82.17;99113.94;4932187;29;20032;-77
2021/01/30 01:13:35;;;;;;;26.97;16.47;;;;;;;0.55;81.79;99100.91;4933282;28;20114;-79
2021/01/30 01:16:01;;;;;;;31.37;17.40;;;;;;;0.80;81.96;99125.97;4914880;29;20167;-76
2021/01/30 01:18:26;;;;;;;40.60;17.43;;;;;;;1.04;82.22;99145.84;4933621;28;20399;-77
2021/01/30 01:21:12;;;;;;;28.20;16.43;;;;;;;1.03;82.17;99145.78;4930721;28;20476;-76
2021/01/30 01:23:40;;;;;;;25.10;16.33;;;;;;;0.95;82.63;99122.50;4915177;29;20083;-75
2021/01/30 01:26:05;;;;;;;22.77;16.17;;;;;;;1.00;82.50;99121.09;4913103;29;20492;-75
2021/01/30 01:28:31;;;;;;;31.33;24.73;;;;;;;1.13;82.62;99117.50;4913227;29;20048;-75
2021/01/30 01:30:56;;;;;;;26.73;16.87;;;;;;;1.20;82.64;99113.66;4912373;29;20058;-73
2021/01/30 01:33:21;;;;;;;27.80;18.57;;;;;;;1.24;82.08;99113.00;4911818;29;20063;-73
2021/01/30 01:35:47;;;;;;;27.77;17.70;;;;;;;0.77;81.80;99029.28;4916425;29;20087;-73
2021/01/30 01:38:12;;;;;;;30.70;18.33;;;;;;;1.26;82.42;99093.63;4913944;29;20050;-73
2021/01/30 01:40:40;;;;;;;34.37;19.27;;;;;;;1.19;82.34;99081.38;4914643;29;20120;-74
2021/01/30 01:43:26;;;;;;;28.60;17.53;;;;;;;1.15;82.88;99102.34;4912898;29;20656;-73
2021/01/30 01:45:57;;;;;;;29.60;17.90;;;;;;;0.88;83.87;99067.06;4912757;29;20047;-73
2021/01/30 01:48:27;;;;;;;32.77;19.53;;;;;;;0.98;83.48;99065.91;4912090;29;20040;-73
2021/01/30 01:50:53;;;;;;;35.37;20.97;;;;;;;1.08;83.68;99070.66;4916864;29;20542;-73
2021/01/30 01:53:26;;;;;;;28.70;20.07;;;;;;;1.22;82.82;99067.16;4913967;29;20111;-74
2021/01/30 01:55:57;;;;;;;27.37;18.47;;;;;;;1.27;82.87;99073.34;4917505;29;20031;-75
2021/01/30 01:58:23;;;;;;;30.03;19.93;;;;;;;1.25;82.75;99054.59;4923208;29;20039;-73
2021/01/30 02:00:52;;;;;;;28.77;20.60;;;;;;;1.35;82.65;99053.41;4915992;29;20032;-71
2021/01/30 02:03:19;;;;;;;32.43;21.70;;;;;;;1.36;82.61;99057.69;4914708;29;20028;-72
2021/01/30 02:05:44;;;;;;;30.03;19.47;;;;;;;1.17;82.27;99014.34;4914367;29;20084;-73
2021/01/30 02:08:16;;;;;;;30.07;19.83;;;;;;;1.21;82.00;99013.69;4916392;29;20039;-71
2021/01/30 02:10:48;;;;;;;34.83;20.90;;;;;;;1.17;82.51;99007.56;4930849;28;20028;-72
2021/01/30 02:13:27;;;;;;;52.37;30.43;;;;;;;1.46;82.46;99043.78;4917432;29;20107;-72
2021/01/30 02:15:59;;;;;;;34.27;23.80;;;;;;;1.43;82.37;99041.97;4914387;29;20032;-73
2021/01/30 02:18:40;;;;;;;33.00;21.57;;;;;;;1.43;82.57;99036.88;4918644;29;20024;-72
2021/01/30 02:21:41;;;;;;;33.67;22.00;;;;;;;1.48;82.68;99029.44;4918005;29;20028;-73
2021/01/30 02:24:28;;;;;;;34.23;21.17;;;;;;;1.35;83.09;99027.13;4919109;29;20028;-72
2021/01/30 02:27:34;;;;;;;30.80;21.07;;;;;;;1.22;83.76;99015.44;4919690;29;20418;-73
2021/01/30 02:30:28;;;;;;;32.93;20.73;;;;;;;1.19;84.27;99000.91;4914146;29;20046;-74
2021/01/30 02:33:11;;;;;;;29.13;19.90;;;;;;;1.13;84.41;98986.22;4915199;29;20436;-75
2021/01/30 02:35:58;;;;;;;34.73;21.53;;;;;;;1.30;84.06;98996.38;4914857;29;20044;-75
2021/01/30 02:38:28;;;;;;;42.27;23.03;;;;;;;1.29;84.45;98998.00;4914897;29;20032;-74
2021/01/30 02:40:56;;;;;;;;;;;;;;;1.25;84.50;99001.22;4915569;29;20036;-73
2021/01/30 02:43:28;;;;;;;49.60;26.20;;;;;;;1.13;85.44;99005.66;4914966;29;20371;-74
2021/01/30 02:46:01;;;;;;;54.60;27.43;;;;;;;1.01;86.14;99003.41;4914856;29;20024;-73
2021/01/30 02:48:36;;;;;;;49.40;26.57;;;;;;;0.90;87.11;98989.28;4914452;29;20060;-71
2021/01/30 02:51:04;;;;;;;46.17;27.07;;;;;;;0.95;87.08;98996.31;4914736;29;20499;-73
2021/01/30 02:53:36;;;;;;;41.90;26.47;;;;;;;0.95;87.35;98998.00;4914695;29;20192;-72
2021/01/30 02:56:03;;;;;;;43.57;27.17;;;;;;;0.99;87.58;98989.72;4914595;29;20028;-72
2021/01/30 02:58:53;;;;;;;39.43;25.33;;;;;;;0.96;87.46;98994.66;4914609;29;20436;-72
2021/01/30 03:01:19;;;;;;;39.63;27.00;;;;;;;0.99;87.53;98988.88;4913834;29;20040;-73
2021/01/30 03:03:46;;;;;;;41.87;26.23;;;;;;;0.93;87.29;98976.72;4914610;29;20575;-72
2021/01/30 03:06:34;;;;;;;38.10;23.33;;;;;;;0.91;87.88;98974.09;4920841;29;20486;-71
2021/01/30 03:09:12;;;;;;;36.60;23.63;;;;;;;0.89;87.93;98959.56;4942554;29;20051;-72
2021/01/30 03:11:44;;;;;;;32.70;21.27;;;;;;;0.86;87.79;98954.31;4936413;29;20032;-76
2021/01/30 03:14:20;;;;;;;40.70;25.27;;;;;;;0.84;87.97;98959.34;4936514;29;20027;-77
2021/01/30 03:16:48;;;;;;;40.10;23.93;;;;;;;0.85;88.68;98962.72;4936464;29;20028;-75
2021/01/30 03:19:29;;;;;;;35.87;23.07;;;;;;;0.76;88.43;98946.25;4936858;29;20031;-74
2021/01/30 03:22:11;;;;;;;140.47;51.60;;;;;;;0.49;88.55;98887.28;4935915;29;20024;-75
2021/01/30 03:24:46;;;;;;;54.80;28.67;;;;;;;0.50;89.04;98885.59;4936187;29;20031;-75
2021/01/30 03:27:42;;;;;;;39.07;27.53;;;;;;;0.74;88.77;98917.34;4936297;29;20035;-75
2021/01/30 03:30:13;;;;;;;36.50;26.70;;;;;;;0.80;88.89;98920.19;4971942;28;20100;-74
2021/01/30 03:32:38;;;;;;;31.67;20.13;;;;;;;0.70;89.00;98915.44;4972472;28;20073;-74
2021/01/30 03:35:07;;;;;;;33.10;22.70;;;;;;;0.75;89.28;98929.25;4972206;28;20039;-74
2021/01/30 03:37:33;;;;;;;34.97;21.90;;;;;;;0.74;89.32;98906.31;4985462;28;20093;-75
2021/01/30 03:39:58;;;;;;;39.03;23.20;;;;;;;0.74;89.37;98919.03;4989532;28;20041;-74
2021/01/30 03:42:24;;;;;;;50.37;25.33;;;;;;;0.77;89.24;98884.50;4973300;28;20043;-74
2021/01/30 03:44:49;;;;;;;53.60;26.90;;;;;;;0.83;89.17;98880.50;4971594;28;20117;-78
2021/01/30 03:47:15;;;;;;;37.67;23.30;;;;;;;0.93;89.11;98883.56;4971686;28;20074;-74
2021/01/30 03:49:41;;;;;;;31.67;21.13;;;;;;;1.00;88.50;98878.78;4971941;28;20419;-74
2021/01/30 03:52:07;;;;;;;33.87;23.37;;;;;;;0.74;88.13;98818.28;4971684;28;20173;-75
2021/01/30 03:54:32;;;;;;;33.10;23.00;;;;;;;1.09;87.99;98876.69;4971725;28;20121;-75
2021/01/30 03:56:58;;;;;;;30.97;22.60;;;;;;;1.09;87.69;98861.47;4974443;28;20059;-76
2021/01/30 03:59:23;;;;;;;29.37;20.90;;;;;;;1.24;87.57;98872.34;4957775;28;20517;-75
2021/01/30 04:01:49;;;;;;;37.47;23.07;;;;;;;1.31;86.74;98867.56;4982488;28;20422;-77
2021/01/30 04:04:15;;;;;;;30.53;20.40;;;;;;;1.22;87.16;98838.38;4971503;28;20030;-75
2021/01/30 04:06:46;;;;;;;29.90;20.33;;;;;;;1.39;86.70;98845.94;4950646;28;20051;-75
2021/01/30 04:09:12;;;;;;;38.47;24.73;;;;;;;1.41;86.24;98844.34;4935466;29;20035;-74
2021/01/30 04:11:40;;;;;;;34.33;24.00;;;;;;;1.48;86.68;98845.47;4934856;29;20032;-79
2021/01/30 04:14:05;;;;;;;41.57;27.00;;;;;;;1.53;86.10;98841.47;4933083;29;20038;-78
2021/01/30 04:16:31;;;;;;;62.70;35.33;;;;;;;1.40;85.90;98823.09;4935664;29;20031;-79
2021/01/30 04:18:56;;;;;;;64.10;34.67;;;;;;;1.45;86.20;98843.66;4934002;29;20036;-74
2021/01/30 04:21:42;;;;;;;42.50;27.00;;;;;;;1.47;85.94;98839.53;4935642;29;20526;-81
2021/01/30 04:24:08;;;;;;;37.17;24.33;;;;;;;1.47;85.98;98833.56;4952170;29;20102;-82
2021/01/30 04:26:33;;;;;;;42.33;27.93;;;;;;;1.00;86.36;98749.19;4952223;29;20047;-83
2021/01/30 04:28:59;;;;;;;52.03;37.00;;;;;;;1.40;86.19;98823.09;4935667;29;20049;-82
2021/01/30 04:31:24;;;;;;;36.70;22.73;;;;;;;1.45;86.15;98836.03;4936090;29;20489;-81
2021/01/30 04:33:51;;;;;;;31.30;20.23;;;;;;;1.23;86.76;98783.31;4952308;29;20039;-83
2021/01/30 04:36:18;;;;;;;28.77;19.67;;;;;;;1.41;86.49;98804.50;4945554;28;20034;-83
2021/01/30 04:38:44;;;;;;;29.20;18.90;;;;;;;1.04;86.42;98738.38;4955021;28;20046;-84
2021/01/30 04:41:34;;;;;;;24.50;17.23;;;;;;;1.51;86.28;98813.44;4954703;28;20035;-83
2021/01/30 04:44:25;;;;;;;27.60;18.93;;;;;;;1.59;85.86;98813.78;4914399;29;20044;-83
2021/01/30 04:47:03;;;;;;;28.93;19.17;;;;;;;1.54;85.32;98800.84;4913553;29;20042;-84
2021/01/30 04:50:14;;;;;;;31.37;21.20;;;;;;;1.62;85.73;98798.69;4913441;29;20075;-83
2021/01/30 04:53:14;;;;;;;33.90;21.73;;;;;;;1.66;85.39;98792.91;4857532;29;20132;-82
2021/01/30 04:56:00;;;;;;;48.00;22.25;;;;;;;1.70;85.83;98776.13;4841835;29;20085;-83
2021/01/30 04:58:36;;;;;;;42.33;29.00;;;;;;;1.66;85.14;98785.28;4857480;29;20186;-82
2021/01/30 05:01:31;;;;;;;41.73;24.77;;;;;;;1.41;86.32;98733.31;4857501;29;20038;-82
2021/01/30 05:04:02;;;;;;;32.13;18.70;;;;;;;1.59;85.98;98773.09;4857378;29;20093;-82
2021/01/30 05:06:53;;;;;;;29.17;18.90;;;;;;;1.41;86.53;98773.13;4857157;29;20406;-82
2021/01/30 05:09:28;;;;;;;59.07;34.37;;;;;;;1.16;87.23;98756.75;4838513;29;20042;-83
2021/01/30 05:12:06;;;;;;;27.93;19.03;;;;;;;1.04;87.77;98759.56;4838731;29;20052;-82
2021/01/30 05:14:36;;;;;;;35.90;22.27;;;;;;;0.98;88.40;98749.13;4844085;29;20045;-82
2021/01/30 05:17:24;;;;;;;47.93;27.27;;;;;;;0.99;88.18;98727.13;4856933;29;20041;-82
2021/01/30 05:20:05;;;;;;;95.67;51.13;;;;;;;1.12;88.70;98726.88;4838824;29;20128;-82
2021/01/30 05:22:43;;;;;;;63.77;39.07;;;;;;;1.16;88.14;98735.53;4838584;29;20042;-82
2021/01/30 05:25:13;;;;;;;58.87;31.30;;;;;;;0.92;88.31;98710.72;4838755;29;20046;-81
2021/01/30 05:27:40;;;;;;;118.22;44.10;;;;;;;1.16;88.79;98735.53;4892842;29;20044;-82
2021/01/30 05:30:18;;;;;;;101.53;43.33;;;;;;;1.19;88.89;98738.22;4894385;29;20405;-84
2021/01/30 05:33:11;;;;;;;166.87;66.57;;;;;;;1.12;88.51;98734.50;4894360;29;20440;-81
2021/01/30 05:36:03;;;;;;;61.10;31.93;;;;;;;1.04;89.03;98723.13;4894352;29;20484;-81
2021/01/30 05:38:48;;;;;;;44.77;27.27;;;;;;;1.18;88.32;98746.66;4894632;29;20127;-81
2021/01/30 05:41:23;;;;;;;42.20;26.37;;;;;;;1.05;88.33;98715.56;4911321;29;20623;-82
2021/01/30 05:44:04;;;;;;;42.17;26.13;;;;;;;1.17;89.31;98734.72;4932306;29;20111;-82
2021/01/30 05:46:31;;;;;;;42.97;24.87;;;;;;;0.94;88.71;98698.97;4924560;29;20569;-81
2021/01/30 05:49:00;;;;;;;34.83;22.43;;;;;;;1.06;88.99;98724.94;4934370;28;20127;-81
2021/01/30 05:51:36;;;;;;;68.35;36.80;;;;;;;1.09;89.16;98722.53;4934668;29;20515;-80
2021/01/30 05:54:02;;;;;;;60.40;36.10;;;;;;;1.03;89.47;98716.31;4934129;28;20048;-81
2021/01/30 05:56:46;;;;;;;45.47;29.00;;;;;;;0.85;89.77;98711.22;4936750;29;20027;-81
2021/01/30 05:59:26;;;;;;;36.27;23.77;;;;;;;0.95;91.11;98742.22;4938480;28;20451;-82
2021/01/30 06:02:08;;;;;;;;;;;;;;;1.03;91.36;98739.19;4938500;29;20027;-82
2021/01/30 06:04:34;;;;;;;60.97;35.03;;;;;;;0.93;90.40;98728.56;4940506;29;19929;-81
2021/01/30 06:06:59;;;;;;;39.50;25.23;;;;;;;1.15;90.79;98749.03;4938351;29;20106;-81
2021/01/30 06:09:43;;;;;;;39.93;27.23;;;;;;;1.19;90.59;98753.47;4938251;29;20039;-81
2021/01/30 06:12:32;;;;;;;92.23;41.23;;;;;;;1.15;90.78;98752.47;4938009;28;20380;-81
2021/01/30 06:15:33;;;;;;;40.50;25.60;;;;;;;1.22;90.41;98761.22;4938523;29;20031;-81
2021/01/30 06:18:13;;;;;;;49.23;27.10;;;;;;;1.18;90.66;98754.28;4916543;29;20071;-81
2021/01/30 06:20:39;;;;;;;38.83;26.27;;;;;;;1.05;91.28;98742.66;4916804;29;20036;-81
2021/01/30 06:23:04;;;;;;;35.13;24.43;;;;;;;1.17;91.53;98768.63;4916454;29;20040;-81
2021/01/30 06:25:33;;;;;;;36.47;23.53;;;;;;;1.08;91.68;98747.88;4916700;29;20028;-81
2021/01/30 06:28:08;;;;;;;35.93;24.77;;;;;;;0.89;92.31;98716.53;4916697;29;20135;-80
2021/01/30 06:30:35;;;;;;;41.47;26.97;;;;;;;1.18;92.41;98750.03;4916508;29;20068;-82
2021/01/30 06:33:06;;;;;;;53.70;30.77;;;;;;;1.14;91.80;98725.28;4916548;29;20036;-82
2021/01/30 06:35:39;;;;;;;46.00;27.07;;;;;;;1.24;91.39;98745.25;4916263;29;20048;-82
2021/01/30 06:38:07;;;;;;;47.70;27.03;;;;;;;1.24;91.90;98749.47;4916680;29;20166;-81
2021/01/30 06:40:48;;;;;;;45.63;27.77;;;;;;;1.04;93.09;98751.94;4916297;29;20048;-81
2021/01/30 06:43:31;;;;;;;49.90;28.77;;;;;;;0.68;92.77;98680.81;4916433;29;20091;-81
2021/01/30 06:46:09;;;;;;;36.30;24.13;;;;;;;1.28;92.42;98762.41;4916148;29;20036;-80
2021/01/30 06:48:38;;;;;;;39.00;23.87;;;;;;;0.88;92.04;98680.91;4916121;29;20088;-82
2021/01/30 06:51:21;;;;;;;36.72;22.85;;;;;;;1.39;91.78;98754.38;4900242;29;20098;-82
2021/01/30 06:53:46;;;;;;;36.23;21.80;;;;;;;1.33;91.15;98744.78;4922450;29;20484;-83
2021/01/30 06:56:27;;;;;;;38.07;23.87;;;;;;;1.55;91.27;98761.03;4952168;28;20035;-83
2021/01/30 06:59:04;;;;;;;39.80;25.03;;;;;;;1.66;90.36;98758.97;4937662;28;20084;-83
2021/01/30 07:01:40;;;;;;;39.87;26.10;;;;;;;1.74;89.63;98765.28;4937382;29;20107;-81
2021/01/30 07:04:14;;;;;;;42.40;26.63;;;;;;;1.73;89.78;98776.25;4937110;29;20090;-82
2021/01/30 07:06:45;;;;;;;40.97;26.57;;;;;;;1.70;89.99;98779.53;4936458;29;20067;-82
2021/01/30 07:09:48;;;;;;;36.90;24.20;;;;;;;1.66;90.38;98776.78;4937208;29;20126;-82
2021/01/30 07:12:29;;;;;;;42.47;27.43;;;;;;;1.48;90.98;98743.75;4951819;28;20486;-83
2021/01/30 07:15:36;;;;;;;35.77;24.73;;;;;;;1.73;90.42;98788.97;4951951;28;20029;-82
2021/01/30 07:18:33;;;;;;;32.50;22.60;;;;;;;1.56;90.64;98793.31;4915682;29;20051;-82
2021/01/30 07:21:19;;;;;;;270.60;149.07;;;;;;;1.27;92.05;98796.25;4899983;29;20488;-81
2021/01/30 07:23:55;;;;;;;280.13;122.90;;;;;;;1.22;92.83;98805.34;4915696;29;20095;-81
2021/01/30 07:26:33;;;;;;;275.67;136.23;;;;;;;1.05;93.19;98788.41;4915572;29;20032;-82
2021/01/30 07:29:07;;;;;;;47.20;29.77;;;;;;;0.92;93.69;98798.00;4915480;29;20496;-81
2021/01/30 07:31:38;;;;;;;94.23;79.67;;;;;;;1.00;94.00;98811.06;4915504;29;20272;-81
2021/01/30 07:34:16;;;;;;;48.07;39.10;;;;;;;1.03;93.87;98813.72;4900070;29;20052;-82
2021/01/30 07:36:59;;;;;;;39.80;25.23;;;;;;;0.90;93.64;98802.13;4915428;29;20092;-80
2021/01/30 07:40:02;;;;;;;39.27;25.10;;;;;;;0.82;94.11;98816.09;4915429;29;20504;-81
2021/01/30 07:42:53;;;;;;;40.83;27.60;;;;;;;0.76;94.55;98821.78;4840656;29;20049;-81
2021/01/30 07:45:27;;;;;;;44.73;27.80;;;;;;;0.82;94.68;98833.88;4840863;29;20090;-81
2021/01/30 07:48:14;;;;;;;43.10;28.17;;;;;;;0.80;94.56;98833.81;4840717;29;20049;-81
2021/01/30 07:50:47;;;;;;;42.87;26.13;;;;;;;0.63;94.63;98843.13;4840569;29;20141;-81
2021/01/30 07:53:17;;;;;;;44.50;27.80;;;;;;;0.55;95.27;98843.53;4840602;29;20062;-81
2021/01/30 07:56:13;;;;;;;46.43;29.00;;;;;;;0.59;95.53;98845.47;4858949;29;20042;-81
2021/01/30 07:58:59;;;;;;;48.27;30.83;;;;;;;0.54;95.24;98845.22;4858896;29;20046;-81
2021/01/30 08:13:58;;;;;;;58.20;33.77;;;;;;;-0.10;98.05;98832.63;5143731;27;20979;-76
2021/01/30 08:16:51;;;;;;;47.43;25.77;;;;;;;0.12;97.48;98876.06;5130241;28;20040;-74
2021/01/30 08:19:59;;;;;;;63.77;36.33;;;;;;;0.38;97.28;98884.19;5126187;27;20100;-75
2021/01/30 08:22:45;;;;;;;57.20;31.83;;;;;;;0.45;96.93;98887.94;5045345;28;20172;-73
2021/01/30 08:25:16;;;;;;;58.23;32.33;;;;;;;0.43;96.84;98880.22;5026794;28;20068;-75
2021/01/30 08:27:48;;;;;;;74.67;47.17;;;;;;;0.12;97.25;98830.41;5026815;28;20036;-75
2021/01/30 08:30:18;;;;;;;70.63;40.83;;;;;;;0.48;96.93;98886.41;5026558;28;20180;-76
2021/01/30 08:33:00;;;;;;;66.33;38.20;;;;;;;0.46;97.16;98898.16;5026453;28;20033;-76
2021/01/30 08:35:25;;;;;;;72.67;40.43;;;;;;;0.18;97.18;98834.94;5026619;28;20522;-75
2021/01/30 08:37:58;;;;;;;70.30;39.43;;;;;;;0.53;97.45;98911.16;5026468;28;20133;-75
2021/01/30 08:40:54;;;;;;;63.03;36.80;;;;;;;0.63;97.14;98914.25;5009996;28;20029;-75
2021/01/30 08:43:49;;;;;;;64.03;35.73;;;;;;;0.69;97.05;98915.38;4986833;28;20393;-75
2021/01/30 08:46:23;;;;;;;68.77;39.63;;;;;;;0.82;96.78;98910.09;4987177;28;20026;-75
2021/01/30 08:49:14;;;;;;;73.63;42.37;;;;;;;0.80;96.84;98911.72;4986988;28;20590;-75
2021/01/30 08:51:45;;;;;;;200.63;108.13;;;;;;;0.86;96.95;98918.75;4951062;28;20042;-75
2021/01/30 08:54:36;;;;;;;138.33;69.03;;;;;;;0.73;97.04;98891.88;4967551;28;20035;-75
2021/01/30 08:57:03;;;;;;;86.33;49.37;;;;;;;0.56;97.20;98842.75;4966955;28;20034;-75
2021/01/30 09:00:12;;;;;;;68.20;36.17;;;;;;;0.98;96.63;98905.81;4970662;28;20027;-75
2021/01/30 09:02:37;;;;;;;64.27;39.57;;;;;;;1.00;96.16;98915.25;4967292;28;20039;-76
2021/01/30 09:05:39;;;;;;;60.30;36.63;;;;;;;1.09;95.77;98930.94;4967398;28;20069;-76
2021/01/30 09:08:10;;;;;;;50.80;29.53;;;;;;;1.11;95.39;98933.56;4967096;28;20142;-76
2021/01/30 09:10:37;;;;;;;69.67;37.20;;;;;;;1.12;95.62;98932.75;4967339;28;20191;-75
2021/01/30 09:13:11;;;;;;;44.07;25.43;;;;;;;1.15;95.27;98930.38;4950575;28;20062;-76
2021/01/30 09:15:42;;;;;;;45.03;27.13;;;;;;;1.19;95.48;98919.56;4967195;28;20049;-75
2021/01/30 09:18:31;;;;;;;43.60;25.20;;;;;;;1.18;95.84;98912.72;4967257;28;20031;-76
2021/01/30 09:21:18;;;;;;;100.65;39.00;;;;;;;0.91;96.50;98857.22;5000969;28;20137;-75
2021/01/30 09:24:11;;;;;;;40.93;25.03;;;;;;;1.31;96.50;98920.94;4983604;28;20037;-75
2021/01/30 09:27:04;;;;;;;45.13;24.80;;;;;;;1.32;95.98;98920.16;4992911;28;20137;-76
2021/01/30 09:29:35;;;;;;;52.63;29.23;;;;;;;1.39;96.18;98923.06;5009996;28;20418;-75
2021/01/30 09:32:01;;;;;;;42.27;24.50;;;;;;;1.47;96.17;98925.13;5032238;28;20033;-76
2021/01/30 09:34:32;;;;;;;49.83;30.97;;;;;;;1.47;95.57;98920.03;4973107;28;20129;-75
2021/01/30 09:36:58;;;;;;;45.47;27.77;;;;;;;1.39;96.02;98905.25;4973469;28;20081;-75
2021/01/30 09:39:36;;;;;;;41.53;24.07;;;;;;;1.50;95.72;98915.09;4985795;28;20393;-75
2021/01/30 09:42:09;;;;;;;40.87;24.87;;;;;;;1.55;95.48;98914.50;5012239;28;20064;-76
2021/01/30 09:44:35;;;;;;;39.67;21.13;;;;;;;1.54;95.56;98909.34;4995932;28;20088;-76
2021/01/30 09:47:06;;;;;;;39.10;24.27;;;;;;;1.64;95.50;98914.06;4995875;28;20026;-76
2021/01/30 09:49:42;;;;;;;39.37;21.97;;;;;;;1.59;95.17;98918.94;4992243;28;20035;-76
2021/01/30 09:52:07;;;;;;;40.97;22.37;;;;;;;1.61;95.06;98921.56;4975989;28;20037;-75
2021/01/30 09:54:34;;;;;;;39.07;24.73;;;;;;;1.69;94.89;98924.47;4992360;28;20046;-75
2021/01/30 09:57:06;;;;;;;36.00;22.27;;;;;;;1.61;94.90;98902.09;4976093;28;20087;-76
2021/01/30 09:59:33;;;;;;;32.50;18.27;;;;;;;1.66;94.12;98909.03;4992573;28;20038;-76
2021/01/30 10:02:17;;;;;;;36.03;20.60;;;;;;;1.83;93.67;98914.94;4992247;28;20030;-75
2021/01/30 10:04:42;;;;;;;27.93;18.13;;;;;;;1.87;93.62;98919.34;4980070;28;20422;-75
2021/01/30 10:07:11;;;;;;;27.30;18.20;;;;;;;1.93;93.21;98917.09;5011813;28;20061;-75
2021/01/30 10:21:31;;;;;;;23.73;16.07;;;;;;;2.15;93.36;98934.22;5082691;27;20408;-75
2021/01/30 10:23:56;;;;;;;23.40;15.53;;;;;;;2.25;91.87;98932.97;5049197;28;20045;-76
2021/01/30 10:26:25;;;;;;;21.47;14.17;;;;;;;2.03;91.45;98873.47;5056773;28;20087;-76
2021/01/30 10:29:02;;;;;;;20.30;12.90;;;;;;;2.04;91.25;98872.63;5067854;28;20452;-76
2021/01/30 10:31:35;;;;;;;20.57;13.47;;;;;;;2.43;90.84;98928.72;5066991;28;20043;-75
2021/01/30 10:34:15;;;;;;;21.73;13.93;;;;;;;2.51;91.22;98938.38;5068919;28;20169;-76
2021/01/30 10:36:45;;;;;;;19.83;14.17;;;;;;;2.50;90.85;98929.84;5068994;28;20029;-75
2021/01/30 10:39:10;;;;;;;20.65;14.13;;;;;;;2.21;90.64;98887.81;5068808;28;20028;-73
2021/01/30 10:41:39;;;;;;;19.30;13.10;;;;;;;2.42;90.88;98900.63;5101448;28;20024;-76
2021/01/30 10:44:06;;;;;;;21.35;12.75;;;;;;;2.56;90.98;98936.91;5067488;28;20025;-75
2021/01/30 10:46:40;;;;;;;21.37;13.27;;;;;;;2.61;90.92;98932.88;5068979;28;20036;-75
2021/01/30 10:49:19;;;;;;;24.03;14.80;;;;;;;2.61;90.71;98935.41;5068869;28;20454;-75
2021/01/30 10:51:45;;;;;;;17.95;12.88;;;;;;;2.66;90.90;98927.97;5068513;28;20032;-76
2021/01/30 10:54:29;;;;;;;19.77;13.97;;;;;;;2.68;91.07;98927.25;5068401;28;20033;-75
2021/01/30 10:57:12;;;;;;;20.67;13.27;;;;;;;2.71;90.93;98926.50;5068152;28;20045;-75
2021/01/30 10:59:59;;;;;;;20.77;12.90;;;;;;;2.72;90.95;98916.38;5068406;28;20032;-75
2021/01/30 11:02:45;;;;;;;20.40;14.10;;;;;;;2.82;90.47;98927.84;5068425;28;20028;-75
2021/01/30 11:05:12;;;;;;;18.83;12.50;;;;;;;2.84;90.19;98918.59;5066353;28;20044;-76
2021/01/30 11:07:39;;;;;;;19.97;12.13;;;;;;;2.80;89.84;98915.84;5068335;28;20064;-75
2021/01/30 11:10:06;;;;;;;19.27;11.87;;;;;;;2.84;89.36;98921.13;5100700;28;20025;-75
2021/01/30 11:12:32;;;;;;;20.40;12.83;;;;;;;2.61;89.49;98881.91;5067947;28;20086;-75
2021/01/30 11:15:07;;;;;;;21.13;13.27;;;;;;;2.78;89.24;98913.22;5068173;28;20021;-75
2021/01/30 11:17:34;;;;;;;20.47;13.27;;;;;;;2.81;88.78;98907.38;5067857;28;20020;-75
2021/01/30 11:20:00;;;;;;;21.20;13.77;;;;;;;2.63;88.43;98859.94;5067858;28;20049;-75
2021/01/30 11:22:28;;;;;;;31.07;18.40;;;;;;;3.01;88.02;98919.28;5066645;28;20025;-75
2021/01/30 11:25:12;;;;;;;23.03;15.53;;;;;;;2.77;88.14;98875.81;5083557;28;20494;-75
2021/01/30 11:27:40;;;;;;;22.23;13.90;;;;;;;2.97;87.81;98926.75;5067836;28;20035;-75
2021/01/30 11:30:17;;;;;;;20.93;14.37;;;;;;;2.94;88.30;98930.06;5067491;28;20035;-75
2021/01/30 11:32:48;;;;;;;25.43;14.07;;;;;;;2.94;88.13;98918.97;5054144;28;20029;-75
2021/01/30 11:35:43;;;;;;;23.73;14.23;;;;;;;3.02;88.47;98923.56;5054377;28;20036;-75
2021/01/30 11:38:18;;;;;;;22.40;13.93;;;;;;;3.04;88.11;98934.72;5032489;28;20037;-75
2021/01/30 11:40:45;;;;;;;22.13;15.57;;;;;;;3.08;87.96;98933.16;5031959;28;20523;-75
2021/01/30 11:43:11;;;;;;;25.40;15.60;;;;;;;3.05;88.21;98933.03;5032098;28;20080;-75
2021/01/30 11:45:36;;;;;;;19.70;12.97;;;;;;;2.99;88.25;98931.09;5032203;28;20033;-75
2021/01/30 11:48:03;;;;;;;24.33;15.27;;;;;;;3.10;88.13;98935.78;5032004;28;20518;-75
2021/01/30 11:50:28;;;;;;;23.47;14.80;;;;;;;3.04;88.10;98919.41;5031991;28;20037;-75
2021/01/30 11:52:54;;;;;;;23.53;15.53;;;;;;;3.15;87.85;98930.03;5031946;28;20103;-75
2021/01/30 11:55:20;;;;;;;25.50;16.53;;;;;;;3.20;87.69;98938.78;5031718;28;20068;-75
2021/01/30 11:57:46;;;;;;;24.90;15.53;;;;;;;3.06;87.98;98934.78;5031886;28;20037;-75
2021/01/30 12:00:13;;;;;;;70.63;39.30;;;;;;;3.10;88.30;98945.97;5031849;28;20044;-75
2021/01/30 12:02:40;;;;;;;28.57;19.37;;;;;;;3.07;88.00;98918.69;5031743;28;20041;-74
2021/01/30 12:05:09;;;;;;;73.63;38.40;;;;;;;3.30;88.08;98954.47;5031767;28;20465;-75
2021/01/30 12:07:34;;;;;;;49.33;27.87;;;;;;;3.28;88.01;98939.09;5031636;28;20045;-75
2021/01/30 12:10:00;;;;;;;47.90;25.57;;;;;;;3.29;87.99;98933.19;5031401;28;20040;-75
2021/01/30 12:12:26;;;;;;;40.60;23.67;;;;;;;3.24;88.17;98930.44;5031556;28;20033;-75
2021/01/30 12:14:52;;;;;;;25.73;17.17;;;;;;;3.34;87.66;98939.34;5042457;28;20045;-76
2021/01/30 12:17:32;;;;;;;26.23;17.47;;;;;;;3.47;87.82;98938.16;5053492;28;20474;-75
2021/01/30 12:19:58;;;;;;;24.63;16.17;;;;;;;3.48;87.67;98944.16;5052410;28;20064;-75